sensor_id;sensor_type;location;lat;lon;timestamp;pressure;altitude;pressure_sealevel;temperature;humidity
43820;BME280;67762;52.476;6.046;2023-08-21T00:01:58;102282.00;;;14.86;100.00
43820;BME280;67762;52.476;6.046;2023-08-21T00:04:24;102283.16;;;14.83;100.00
43820;BME280;67762;52.476;6.046;2023-08-21T00:06:50;102282.47;;;14.81;100.00
43820;BME280;67762;52.476;6.046;2023-08-21T00:09:16;102279.78;;;14.81;100.00
43820;BME280;67762;52.476;6.046;2023-08-21T00:11:41;102278.94;;;14.81;100.00
43820;BME280;67762;52.476;6.046;2023-08-21T00:14:07;102279.13;;;14.79;100.00
43820;BME280;67762;52.476;6.046;2023-08-21T00:16:33;102279.44;;;14.76;100.00
43820;BME280;67762;52.476;6.046;2023-08-21T00:19:00;102284.81;;;14.76;100.00
43820;BME280;67762;52.476;6.046;2023-08-21T00:21:25;102280.28;;;14.77;100.00
43820;BME280;67762;52.476;6.046;2023-08-21T00:23:51;102288.47;;;14.75;100.00
43820;BME280;67762;52.476;6.046;2023-08-21T00:26:17;102283.09;;;14.75;100.00
43820;BME280;67762;52.476;6.046;2023-08-21T00:28:43;102287.63;;;14.75;100.00
43820;BME280;67762;52.476;6.046;2023-08-21T00:31:09;102286.81;;;14.74;100.00
43820;BME280;67762;52.476;6.046;2023-08-21T00:33:35;102281.75;;;14.71;100.00
43820;BME280;67762;52.476;6.046;2023-08-21T00:36:03;102283.59;;;14.71;100.00
43820;BME280;67762;52.476;6.046;2023-08-21T00:38:28;102284.56;;;14.70;100.00
43820;BME280;67762;52.476;6.046;2023-08-21T00:40:54;102283.88;;;14.68;100.00
43820;BME280;67762;52.476;6.046;2023-08-21T00:43:20;102283.34;;;14.64;100.00
43820;BME280;67762;52.476;6.046;2023-08-21T00:45:47;102276.31;;;14.63;100.00
43820;BME280;67762;52.476;6.046;2023-08-21T00:48:14;102279.13;;;14.61;100.00
43820;BME280;67762;52.476;6.046;2023-08-21T00:50:41;102274.63;;;14.62;100.00
43820;BME280;67762;52.476;6.046;2023-08-21T00:53:07;102275.78;;;14.59;100.00
43820;BME280;67762;52.476;6.046;2023-08-21T00:55:33;102276.22;;;14.55;100.00
43820;BME280;67762;52.476;6.046;2023-08-21T00:58:00;102274.00;;;14.50;100.00
43820;BME280;67762;52.476;6.046;2023-08-21T01:00:28;102269.63;;;14.49;100.00
43820;BME280;67762;52.476;6.046;2023-08-21T01:02:55;102271.63;;;14.47;100.00
43820;BME280;67762;52.476;6.046;2023-08-21T01:05:23;102277.16;;;14.46;100.00
43820;BME280;67762;52.476;6.046;2023-08-21T01:08:02;102273.09;;;14.42;100.00
43820;BME280;67762;52.476;6.046;2023-08-21T01:10:43;102272.09;;;14.43;100.00
43820;BME280;67762;52.476;6.046;2023-08-21T01:16:29;102283.44;;;14.37;100.00
43820;BME280;67762;52.476;6.046;2023-08-21T01:18:55;102287.97;;;14.36;100.00
43820;BME280;67762;52.476;6.046;2023-08-21T01:21:23;102284.44;;;14.36;100.00
43820;BME280;67762;52.476;6.046;2023-08-21T01:23:49;102292.94;;;14.31;100.00
43820;BME280;67762;52.476;6.046;2023-08-21T01:26:14;102291.41;;;14.29;100.00
43820;BME280;67762;52.476;6.046;2023-08-21T01:28:40;102293.22;;;14.28;100.00
43820;BME280;67762;52.476;6.046;2023-08-21T01:31:25;102288.53;;;14.30;100.00
43820;BME280;67762;52.476;6.046;2023-08-21T01:33:56;102292.66;;;14.34;100.00
43820;BME280;67762;52.476;6.046;2023-08-21T01:36:24;102290.09;;;14.33;100.00
43820;BME280;67762;52.476;6.046;2023-08-21T01:38:50;102298.59;;;14.28;100.00
43820;BME280;67762;52.476;6.046;2023-08-21T01:41:16;102302.75;;;14.23;100.00
43820;BME280;67762;52.476;6.046;2023-08-21T01:43:42;102298.69;;;14.19;100.00
43820;BME280;67762;52.476;6.046;2023-08-21T01:46:08;102301.38;;;14.19;100.00
43820;BME280;67762;52.476;6.046;2023-08-21T01:48:34;102298.69;;;14.19;100.00
43820;BME280;67762;52.476;6.046;2023-08-21T01:51:03;102309.56;;;14.17;100.00
43820;BME280;67762;52.476;6.046;2023-08-21T01:53:28;102303.63;;;14.14;100.00
43820;BME280;67762;52.476;6.046;2023-08-21T01:55:54;102302.09;;;14.11;100.00
43820;BME280;67762;52.476;6.046;2023-08-21T01:58:20;102305.81;;;14.10;100.00
43820;BME280;67762;52.476;6.046;2023-08-21T02:00:46;102305.09;;;14.08;100.00
43820;BME280;67762;52.476;6.046;2023-08-21T02:03:13;102300.72;;;14.07;100.00
43820;BME280;67762;52.476;6.046;2023-08-21T02:05:39;102299.72;;;14.08;100.00
43820;BME280;67762;52.476;6.046;2023-08-21T02:08:06;102302.28;;;14.10;100.00
43820;BME280;67762;52.476;6.046;2023-08-21T02:10:34;102301.25;;;14.11;100.00
43820;BME280;67762;52.476;6.046;2023-08-21T02:13:00;102293.19;;;14.11;100.00
43820;BME280;67762;52.476;6.046;2023-08-21T02:15:26;102292.09;;;14.13;100.00
43820;BME280;67762;52.476;6.046;2023-08-21T02:17:51;102297.13;;;14.16;100.00
43820;BME280;67762;52.476;6.046;2023-08-21T02:20:17;102300.28;;;14.12;100.00
43820;BME280;67762;52.476;6.046;2023-08-21T02:22:43;102300.03;;;14.05;100.00
43820;BME280;67762;52.476;6.046;2023-08-21T02:25:09;102296.09;;;13.99;100.00
43820;BME280;67762;52.476;6.046;2023-08-21T02:27:34;102300.09;;;13.95;100.00
43820;BME280;67762;52.476;6.046;2023-08-21T02:30:00;102296.72;;;13.93;100.00
43820;BME280;67762;52.476;6.046;2023-08-21T02:32:29;102303.25;;;13.91;100.00
43820;BME280;67762;52.476;6.046;2023-08-21T02:34:54;102308.06;;;13.87;100.00
43820;BME280;67762;52.476;6.046;2023-08-21T02:37:20;102306.53;;;13.85;100.00
43820;BME280;67762;52.476;6.046;2023-08-21T02:39:47;102307.22;;;13.87;100.00
43820;BME280;67762;52.476;6.046;2023-08-21T02:42:13;102304.22;;;13.90;100.00
43820;BME280;67762;52.476;6.046;2023-08-21T02:44:38;102308.44;;;13.92;100.00
43820;BME280;67762;52.476;6.046;2023-08-21T02:47:04;102310.97;;;13.94;100.00
43820;BME280;67762;52.476;6.046;2023-08-21T02:49:30;102317.19;;;13.94;100.00
43820;BME280;67762;52.476;6.046;2023-08-21T02:51:55;102309.84;;;13.96;100.00
43820;BME280;67762;52.476;6.046;2023-08-21T02:54:21;102310.66;;;13.97;100.00
43820;BME280;67762;52.476;6.046;2023-08-21T02:56:47;102308.84;;;13.97;100.00
43820;BME280;67762;52.476;6.046;2023-08-21T02:59:13;102305.56;;;14.03;100.00
43820;BME280;67762;52.476;6.046;2023-08-21T03:01:39;102307.16;;;14.14;100.00
43820;BME280;67762;52.476;6.046;2023-08-21T03:04:04;102310.09;;;14.21;100.00
43820;BME280;67762;52.476;6.046;2023-08-21T03:06:30;102308.66;;;14.26;100.00
43820;BME280;67762;52.476;6.046;2023-08-21T03:08:56;102310.03;;;14.30;100.00
43820;BME280;67762;52.476;6.046;2023-08-21T03:11:21;102299.88;;;14.34;100.00
43820;BME280;67762;52.476;6.046;2023-08-21T03:13:47;102301.41;;;14.36;100.00
43820;BME280;67762;52.476;6.046;2023-08-21T03:16:13;102294.88;;;14.39;100.00
43820;BME280;67762;52.476;6.046;2023-08-21T03:18:57;102298.41;;;14.39;100.00
43820;BME280;67762;52.476;6.046;2023-08-21T03:21:25;102301.47;;;14.44;100.00
43820;BME280;67762;52.476;6.046;2023-08-21T03:23:54;102301.16;;;14.47;100.00
43820;BME280;67762;52.476;6.046;2023-08-21T03:26:21;102302.38;;;14.53;100.00
43820;BME280;67762;52.476;6.046;2023-08-21T03:28:47;102305.31;;;14.59;100.00
43820;BME280;67762;52.476;6.046;2023-08-21T03:31:13;102294.78;;;14.66;100.00
43820;BME280;67762;52.476;6.046;2023-08-21T03:33:39;102300.56;;;14.71;100.00
43820;BME280;67762;52.476;6.046;2023-08-21T03:36:04;102303.91;;;14.73;100.00
43820;BME280;67762;52.476;6.046;2023-08-21T03:38:30;102297.38;;;14.76;100.00
43820;BME280;67762;52.476;6.046;2023-08-21T03:40:56;102287.50;;;14.76;100.00
43820;BME280;67762;52.476;6.046;2023-08-21T03:43:23;102288.66;;;14.74;100.00
43820;BME280;67762;52.476;6.046;2023-08-21T03:45:49;102289.81;;;14.71;100.00
43820;BME280;67762;52.476;6.046;2023-08-21T03:48:14;102287.25;;;14.70;100.00
43820;BME280;67762;52.476;6.046;2023-08-21T03:50:40;102283.88;;;14.68;100.00
43820;BME280;67762;52.476;6.046;2023-08-21T03:53:06;102288.59;;;14.66;100.00
43820;BME280;67762;52.476;6.046;2023-08-21T03:55:31;102279.97;;;14.62;100.00
43820;BME280;67762;52.476;6.046;2023-08-21T03:57:57;102279.44;;;14.58;100.00
43820;BME280;67762;52.476;6.046;2023-08-21T04:00:23;102273.22;;;14.58;100.00
43820;BME280;67762;52.476;6.046;2023-08-21T04:02:49;102280.28;;;14.59;100.00
43820;BME280;67762;52.476;6.046;2023-08-21T04:05:15;102287.38;;;14.60;100.00
43820;BME280;67762;52.476;6.046;2023-08-21T04:07:41;102288.53;;;14.57;100.00
43820;BME280;67762;52.476;6.046;2023-08-21T04:10:07;102292.03;;;14.58;100.00
43820;BME280;67762;52.476;6.046;2023-08-21T04:12:33;102286.81;;;14.56;100.00
43820;BME280;67762;52.476;6.046;2023-08-21T04:14:59;102285.72;;;14.49;100.00
43820;BME280;67762;52.476;6.046;2023-08-21T04:17:25;102291.56;;;14.45;100.00
43820;BME280;67762;52.476;6.046;2023-08-21T04:19:50;102294.81;;;14.48;100.00
43820;BME280;67762;52.476;6.046;2023-08-21T04:22:16;102289.97;;;14.52;100.00
43820;BME280;67762;52.476;6.046;2023-08-21T04:24:42;102308.13;;;14.58;100.00
43820;BME280;67762;52.476;6.046;2023-08-21T04:27:08;102299.41;;;14.56;100.00
43820;BME280;67762;52.476;6.046;2023-08-21T04:29:38;102300.84;;;14.50;100.00
43820;BME280;67762;52.476;6.046;2023-08-21T04:32:04;102302.19;;;14.46;100.00
43820;BME280;67762;52.476;6.046;2023-08-21T04:34:32;102300.47;;;14.45;100.00
43820;BME280;67762;52.476;6.046;2023-08-21T04:36:58;102301.34;;;14.46;100.00
43820;BME280;67762;52.476;6.046;2023-08-21T04:39:23;102298.47;;;14.47;100.00
43820;BME280;67762;52.476;6.046;2023-08-21T04:41:49;102306.91;;;14.52;100.00
43820;BME280;67762;52.476;6.046;2023-08-21T04:44:17;102294.56;;;14.59;100.00
43820;BME280;67762;52.476;6.046;2023-08-21T04:46:43;102298.31;;;14.67;100.00
43820;BME280;67762;52.476;6.046;2023-08-21T04:49:09;102299.84;;;14.69;100.00
43820;BME280;67762;52.476;6.046;2023-08-21T04:51:35;102306.91;;;14.70;100.00
43820;BME280;67762;52.476;6.046;2023-08-21T04:54:02;102299.41;;;14.74;100.00
43820;BME280;67762;52.476;6.046;2023-08-21T04:56:28;102304.16;;;14.80;100.00
43820;BME280;67762;52.476;6.046;2023-08-21T04:58:55;102303.50;;;14.86;100.00
43820;BME280;67762;52.476;6.046;2023-08-21T05:01:23;102305.56;;;14.92;100.00
43820;BME280;67762;52.476;6.046;2023-08-21T05:03:51;102301.72;;;14.94;100.00
43820;BME280;67762;52.476;6.046;2023-08-21T05:06:17;102299.56;;;14.98;100.00
43820;BME280;67762;52.476;6.046;2023-08-21T05:08:43;102298.28;;;15.02;100.00
43820;BME280;67762;52.476;6.046;2023-08-21T05:11:10;102308.06;;;15.11;100.00
43820;BME280;67762;52.476;6.046;2023-08-21T05:13:37;102304.25;;;15.21;100.00
43820;BME280;67762;52.476;6.046;2023-08-21T05:16:05;102302.50;;;15.38;100.00
43820;BME280;67762;52.476;6.046;2023-08-21T05:18:35;102316.59;;;15.58;100.00
43820;BME280;67762;52.476;6.046;2023-08-21T05:21:00;102318.06;;;15.78;100.00
43820;BME280;67762;52.476;6.046;2023-08-21T05:23:27;102321.31;;;15.98;100.00
43820;BME280;67762;52.476;6.046;2023-08-21T05:25:57;102317.88;;;16.21;100.00
43820;BME280;67762;52.476;6.046;2023-08-21T05:28:23;102323.78;;;16.41;100.00
43820;BME280;67762;52.476;6.046;2023-08-21T05:30:49;102329.56;;;16.54;100.00
43820;BME280;67762;52.476;6.046;2023-08-21T05:33:15;102331.94;;;16.65;100.00
43820;BME280;67762;52.476;6.046;2023-08-21T05:35:41;102339.53;;;16.78;100.00
43820;BME280;67762;52.476;6.046;2023-08-21T05:38:07;102336.16;;;16.92;100.00
43820;BME280;67762;52.476;6.046;2023-08-21T05:40:34;102327.03;;;17.17;100.00
43820;BME280;67762;52.476;6.046;2023-08-21T05:43:00;102329.69;;;17.41;100.00
43820;BME280;67762;52.476;6.046;2023-08-21T05:45:27;102332.00;;;17.52;100.00
43820;BME280;67762;52.476;6.046;2023-08-21T05:47:55;102329.66;;;17.66;100.00
43820;BME280;67762;52.476;6.046;2023-08-21T05:50:20;102339.31;;;17.91;100.00
43820;BME280;67762;52.476;6.046;2023-08-21T05:52:46;102340.53;;;18.19;100.00
43820;BME280;67762;52.476;6.046;2023-08-21T05:55:11;102339.72;;;18.41;100.00
43820;BME280;67762;52.476;6.046;2023-08-21T05:57:37;102338.41;;;18.68;100.00
43820;BME280;67762;52.476;6.046;2023-08-21T06:00:04;102339.91;;;18.93;99.38
43820;BME280;67762;52.476;6.046;2023-08-21T06:02:40;102342.63;;;19.08;97.90
43820;BME280;67762;52.476;6.046;2023-08-21T06:05:09;102345.63;;;19.13;96.99
43820;BME280;67762;52.476;6.046;2023-08-21T06:07:35;102344.59;;;19.14;96.60
43820;BME280;67762;52.476;6.046;2023-08-21T06:10:01;102337.34;;;19.29;96.58
43820;BME280;67762;52.476;6.046;2023-08-21T06:12:26;102345.25;;;19.53;96.72
43820;BME280;67762;52.476;6.046;2023-08-21T06:14:54;102346.28;;;19.81;95.19
43820;BME280;67762;52.476;6.046;2023-08-21T06:17:20;102341.84;;;20.10;93.75
43820;BME280;67762;52.476;6.046;2023-08-21T06:19:45;102341.16;;;20.37;92.85
43820;BME280;67762;52.476;6.046;2023-08-21T06:22:11;102338.06;;;20.61;90.93
43820;BME280;67762;52.476;6.046;2023-08-21T06:24:37;102346.13;;;20.76;89.60
43820;BME280;67762;52.476;6.046;2023-08-21T06:27:05;102347.94;;;20.90;88.61
43820;BME280;67762;52.476;6.046;2023-08-21T06:29:31;102339.72;;;21.05;88.15
43820;BME280;67762;52.476;6.046;2023-08-21T06:31:56;102338.41;;;21.22;86.59
43820;BME280;67762;52.476;6.046;2023-08-21T06:34:23;102330.78;;;21.38;85.82
43820;BME280;67762;52.476;6.046;2023-08-21T06:36:49;102334.94;;;21.62;84.67
43820;BME280;67762;52.476;6.046;2023-08-21T06:39:16;102341.06;;;21.77;82.52
43820;BME280;67762;52.476;6.046;2023-08-21T06:41:41;102349.31;;;21.90;81.25
43820;BME280;67762;52.476;6.046;2023-08-21T06:44:11;102341.03;;;22.11;80.58
43820;BME280;67762;52.476;6.046;2023-08-21T06:46:36;102339.66;;;22.42;79.68
43820;BME280;67762;52.476;6.046;2023-08-21T06:49:03;102338.69;;;22.69;78.20
43820;BME280;67762;52.476;6.046;2023-08-21T06:51:29;102340.63;;;22.95;77.14
43820;BME280;67762;52.476;6.046;2023-08-21T06:53:54;102344.38;;;23.00;75.76
43820;BME280;67762;52.476;6.046;2023-08-21T06:56:20;102343.97;;;22.97;74.46
43820;BME280;67762;52.476;6.046;2023-08-21T06:58:45;102341.25;;;22.84;74.17
43820;BME280;67762;52.476;6.046;2023-08-21T07:01:11;102341.63;;;22.74;74.40
43820;BME280;67762;52.476;6.046;2023-08-21T07:03:36;102338.50;;;22.64;73.79
43820;BME280;67762;52.476;6.046;2023-08-21T07:06:02;102337.84;;;22.68;74.04
43820;BME280;67762;52.476;6.046;2023-08-21T07:08:28;102336.63;;;22.91;73.27
43820;BME280;67762;52.476;6.046;2023-08-21T07:10:54;102333.91;;;23.10;72.36
43820;BME280;67762;52.476;6.046;2023-08-21T07:13:20;102330.34;;;23.23;71.42
43820;BME280;67762;52.476;6.046;2023-08-21T07:15:46;102340.19;;;23.17;70.94
43820;BME280;67762;52.476;6.046;2023-08-21T07:18:13;102337.06;;;23.20;70.42
43820;BME280;67762;52.476;6.046;2023-08-21T07:20:38;102335.16;;;23.27;69.84
43820;BME280;67762;52.476;6.046;2023-08-21T07:23:04;102341.84;;;23.32;68.86
43820;BME280;67762;52.476;6.046;2023-08-21T07:25:30;102339.56;;;23.35;68.31
43820;BME280;67762;52.476;6.046;2023-08-21T07:27:56;102329.09;;;23.39;65.93
43820;BME280;67762;52.476;6.046;2023-08-21T07:30:22;102325.09;;;23.41;65.99
43820;BME280;67762;52.476;6.046;2023-08-21T07:32:48;102328.84;;;23.47;65.22
43820;BME280;67762;52.476;6.046;2023-08-21T07:35:15;102333.41;;;23.66;65.28
43820;BME280;67762;52.476;6.046;2023-08-21T07:37:44;102326.25;;;23.84;65.28
43820;BME280;67762;52.476;6.046;2023-08-21T07:40:10;102330.13;;;24.15;64.55
43820;BME280;67762;52.476;6.046;2023-08-21T07:42:37;102330.06;;;24.59;63.88
43820;BME280;67762;52.476;6.046;2023-08-21T07:45:03;102324.31;;;24.74;62.29
43820;BME280;67762;52.476;6.046;2023-08-21T07:47:29;102325.72;;;24.83;60.50
43820;BME280;67762;52.476;6.046;2023-08-21T07:49:56;102330.75;;;24.86;59.83
43820;BME280;67762;52.476;6.046;2023-08-21T07:52:22;102331.25;;;25.01;59.35
43820;BME280;67762;52.476;6.046;2023-08-21T07:54:52;102340.72;;;25.41;58.87
43820;BME280;67762;52.476;6.046;2023-08-21T07:57:18;102346.31;;;26.07;58.42
43820;BME280;67762;52.476;6.046;2023-08-21T07:59:44;102348.00;;;26.27;56.73
43820;BME280;67762;52.476;6.046;2023-08-21T08:02:10;102334.63;;;26.00;56.24
43820;BME280;67762;52.476;6.046;2023-08-21T08:04:40;102344.97;;;25.80;55.26
43820;BME280;67762;52.476;6.046;2023-08-21T08:07:10;102341.13;;;25.88;54.95
43820;BME280;67762;52.476;6.046;2023-08-21T08:09:38;102342.38;;;25.49;56.04
43820;BME280;67762;52.476;6.046;2023-08-21T08:12:06;102334.31;;;25.11;57.11
43820;BME280;67762;52.476;6.046;2023-08-21T08:14:32;102340.91;;;25.04;57.42
43820;BME280;67762;52.476;6.046;2023-08-21T08:16:58;102338.75;;;25.06;57.89
43820;BME280;67762;52.476;6.046;2023-08-21T08:19:24;102336.41;;;25.34;57.61
43820;BME280;67762;52.476;6.046;2023-08-21T08:21:49;102338.88;;;25.96;56.13
43820;BME280;67762;52.476;6.046;2023-08-21T08:24:15;102341.75;;;26.49;54.71
43820;BME280;67762;52.476;6.046;2023-08-21T08:26:41;102342.88;;;26.30;54.44
43820;BME280;67762;52.476;6.046;2023-08-21T08:29:09;102345.75;;;26.65;54.05
43820;BME280;67762;52.476;6.046;2023-08-21T08:31:34;102346.44;;;26.60;53.64
43820;BME280;67762;52.476;6.046;2023-08-21T08:34:00;102341.16;;;26.47;54.09
43820;BME280;67762;52.476;6.046;2023-08-21T08:36:26;102353.69;;;26.25;54.68
43820;BME280;67762;52.476;6.046;2023-08-21T08:38:52;102353.69;;;26.07;55.44
43820;BME280;67762;52.476;6.046;2023-08-21T08:44:06;102335.75;;;27.12;53.47
43820;BME280;67762;52.476;6.046;2023-08-21T08:46:32;102342.97;;;26.95;53.82
43820;BME280;67762;52.476;6.046;2023-08-21T08:48:58;102339.06;;;26.61;54.09
43820;BME280;67762;52.476;6.046;2023-08-21T08:51:28;102344.31;;;26.33;54.15
43820;BME280;67762;52.476;6.046;2023-08-21T08:53:56;102344.84;;;25.93;54.75
43820;BME280;67762;52.476;6.046;2023-08-21T08:56:24;102348.81;;;25.91;55.56
43820;BME280;67762;52.476;6.046;2023-08-21T08:58:49;102346.19;;;26.50;53.69
43820;BME280;67762;52.476;6.046;2023-08-21T09:01:15;102337.28;;;27.31;52.11
43820;BME280;67762;52.476;6.046;2023-08-21T09:03:41;102340.41;;;28.21;50.50
43820;BME280;67762;52.476;6.046;2023-08-21T09:06:06;102341.50;;;28.65;49.85
43820;BME280;67762;52.476;6.046;2023-08-21T09:08:32;102351.53;;;29.04;48.96
43820;BME280;67762;52.476;6.046;2023-08-21T09:11:01;102333.38;;;29.58;47.19
43820;BME280;67762;52.476;6.046;2023-08-21T09:13:27;102328.00;;;30.06;46.26
43820;BME280;67762;52.476;6.046;2023-08-21T09:15:54;102333.13;;;29.98;45.60
43820;BME280;67762;52.476;6.046;2023-08-21T09:18:24;102333.78;;;29.67;45.32
43820;BME280;67762;52.476;6.046;2023-08-21T09:20:49;102328.09;;;29.51;46.21
43820;BME280;67762;52.476;6.046;2023-08-21T09:23:16;102327.34;;;29.99;45.84
43820;BME280;67762;52.476;6.046;2023-08-21T09:25:44;102321.47;;;29.91;45.54
43820;BME280;67762;52.476;6.046;2023-08-21T09:28:12;102321.75;;;29.51;45.54
43820;BME280;67762;52.476;6.046;2023-08-21T09:30:52;102329.28;;;29.61;45.71
43820;BME280;67762;52.476;6.046;2023-08-21T09:33:24;102328.38;;;29.93;45.43
43820;BME280;67762;52.476;6.046;2023-08-21T09:35:54;102329.72;;;30.12;45.15
43820;BME280;67762;52.476;6.046;2023-08-21T09:38:21;102324.72;;;30.09;45.07
43820;BME280;67762;52.476;6.046;2023-08-21T09:40:51;102323.16;;;29.53;46.49
43820;BME280;67762;52.476;6.046;2023-08-21T09:43:17;102324.13;;;28.92;46.55
43820;BME280;67762;52.476;6.046;2023-08-21T09:45:54;102314.34;;;28.52;48.74
43820;BME280;67762;52.476;6.046;2023-08-21T09:48:27;102308.09;;;27.48;50.01
43820;BME280;67762;52.476;6.046;2023-08-21T09:50:53;102314.53;;;26.96;50.97
43820;BME280;67762;52.476;6.046;2023-08-21T09:53:20;102313.19;;;26.87;52.03
43820;BME280;67762;52.476;6.046;2023-08-21T09:55:47;102310.47;;;27.68;51.52
43820;BME280;67762;52.476;6.046;2023-08-21T09:58:14;102309.53;;;27.51;50.47
43820;BME280;67762;52.476;6.046;2023-08-21T10:00:42;102308.09;;;28.00;47.91
43820;BME280;67762;52.476;6.046;2023-08-21T10:03:10;102304.22;;;28.69;46.28
43820;BME280;67762;52.476;6.046;2023-08-21T10:05:37;102301.13;;;28.20;46.80
43820;BME280;67762;52.476;6.046;2023-08-21T10:08:05;102304.16;;;28.52;47.12
43820;BME280;67762;52.476;6.046;2023-08-21T10:10:34;102299.16;;;28.04;47.48
43820;BME280;67762;52.476;6.046;2023-08-21T10:13:00;102298.47;;;27.46;48.29
43820;BME280;67762;52.476;6.046;2023-08-21T10:15:27;102287.97;;;27.54;48.56
43820;BME280;67762;52.476;6.046;2023-08-21T10:17:53;102299.41;;;28.76;46.85
43820;BME280;67762;52.476;6.046;2023-08-21T10:20:25;102286.38;;;29.60;45.25
43820;BME280;67762;52.476;6.046;2023-08-21T10:22:55;102292.53;;;29.28;44.92
43820;BME280;67762;52.476;6.046;2023-08-21T10:25:26;102290.63;;;29.89;44.46
43820;BME280;67762;52.476;6.046;2023-08-21T10:27:55;102283.75;;;30.71;43.13
43820;BME280;67762;52.476;6.046;2023-08-21T10:30:25;102281.91;;;31.66;41.86
43820;BME280;67762;52.476;6.046;2023-08-21T10:32:54;102284.31;;;32.29;41.44
43820;BME280;67762;52.476;6.046;2023-08-21T10:35:25;102276.34;;;31.51;42.07
43820;BME280;67762;52.476;6.046;2023-08-21T10:38:29;102285.97;;;31.06;43.07
43820;BME280;67762;52.476;6.046;2023-08-21T10:41:08;102292.94;;;30.24;43.84
43820;BME280;67762;52.476;6.046;2023-08-21T10:43:38;102285.38;;;29.87;44.46
43820;BME280;67762;52.476;6.046;2023-08-21T10:46:09;102284.13;;;29.56;44.93
43820;BME280;67762;52.476;6.046;2023-08-21T10:48:39;102286.22;;;29.11;45.23
43820;BME280;67762;52.476;6.046;2023-08-21T10:51:06;102286.34;;;29.21;45.28
43820;BME280;67762;52.476;6.046;2023-08-21T10:53:33;102296.44;;;29.92;44.21
43820;BME280;67762;52.476;6.046;2023-08-21T10:56:04;102295.56;;;29.87;44.31
43820;BME280;67762;52.476;6.046;2023-08-21T10:58:42;102304.75;;;30.24;43.56
43820;BME280;67762;52.476;6.046;2023-08-21T11:01:09;102298.63;;;30.39;42.18
43820;BME280;67762;52.476;6.046;2023-08-21T11:03:38;102294.75;;;30.98;40.63
43820;BME280;67762;52.476;6.046;2023-08-21T11:06:07;102293.84;;;31.81;39.68
43820;BME280;67762;52.476;6.046;2023-08-21T11:08:33;102295.88;;;32.06;38.09
43820;BME280;67762;52.476;6.046;2023-08-21T11:11:01;102288.38;;;30.66;39.38
43820;BME280;67762;52.476;6.046;2023-08-21T11:13:27;102287.47;;;30.55;39.37
43820;BME280;67762;52.476;6.046;2023-08-21T11:16:04;102286.16;;;31.37;39.38
43820;BME280;67762;52.476;6.046;2023-08-21T11:18:34;102292.31;;;30.75;39.33
43820;BME280;67762;52.476;6.046;2023-08-21T11:21:07;102296.16;;;29.50;40.47
43820;BME280;67762;52.476;6.046;2023-08-21T11:23:35;102293.28;;;30.32;39.98
43820;BME280;67762;52.476;6.046;2023-08-21T11:26:02;102301.53;;;31.22;38.57
43820;BME280;67762;52.476;6.046;2023-08-21T11:28:30;102294.28;;;31.58;37.17
43820;BME280;67762;52.476;6.046;2023-08-21T11:30:57;102292.69;;;31.67;37.51
43820;BME280;67762;52.476;6.046;2023-08-21T11:33:23;102292.16;;;31.70;36.97
43820;BME280;67762;52.476;6.046;2023-08-21T11:35:49;102275.84;;;31.64;37.17
43820;BME280;67762;52.476;6.046;2023-08-21T11:38:17;102282.75;;;31.19;37.25
43820;BME280;67762;52.476;6.046;2023-08-21T11:40:54;102279.66;;;31.11;37.73
43820;BME280;67762;52.476;6.046;2023-08-21T11:43:21;102275.25;;;31.57;37.56
43820;BME280;67762;52.476;6.046;2023-08-21T11:45:47;102273.38;;;31.72;36.43
43820;BME280;67762;52.476;6.046;2023-08-21T11:48:13;102281.59;;;31.57;36.65
43820;BME280;67762;52.476;6.046;2023-08-21T11:50:39;102280.47;;;31.48;36.52
43820;BME280;67762;52.476;6.046;2023-08-21T11:53:05;102276.16;;;31.72;35.78
43820;BME280;67762;52.476;6.046;2023-08-21T11:55:36;102277.81;;;31.78;35.59
43820;BME280;67762;52.476;6.046;2023-08-21T11:58:01;102272.53;;;31.72;35.09
43820;BME280;67762;52.476;6.046;2023-08-21T12:00:28;102277.59;;;31.95;34.99
43820;BME280;67762;52.476;6.046;2023-08-21T12:02:56;102275.47;;;32.22;35.14
43820;BME280;67762;52.476;6.046;2023-08-21T12:05:22;102264.69;;;32.16;34.50
43820;BME280;67762;52.476;6.046;2023-08-21T12:07:48;102268.78;;;31.93;34.62
43820;BME280;67762;52.476;6.046;2023-08-21T12:10:14;102258.06;;;32.07;34.17
43820;BME280;67762;52.476;6.046;2023-08-21T12:12:39;102254.34;;;31.76;34.61
43820;BME280;67762;52.476;6.046;2023-08-21T12:15:05;102257.03;;;31.56;34.67
43820;BME280;67762;52.476;6.046;2023-08-21T12:17:31;102257.06;;;31.66;34.67
43820;BME280;67762;52.476;6.046;2023-08-21T12:19:57;102250.84;;;31.39;34.39
43820;BME280;67762;52.476;6.046;2023-08-21T12:22:22;102252.63;;;31.13;33.95
43820;BME280;67762;52.476;6.046;2023-08-21T12:24:48;102250.84;;;31.34;33.43
43820;BME280;67762;52.476;6.046;2023-08-21T12:27:14;102240.94;;;31.43;33.14
43820;BME280;67762;52.476;6.046;2023-08-21T12:29:39;102253.50;;;31.70;33.47
43820;BME280;67762;52.476;6.046;2023-08-21T12:32:05;102252.75;;;31.90;32.71
43820;BME280;67762;52.476;6.046;2023-08-21T12:34:31;102262.75;;;32.06;33.05
43820;BME280;67762;52.476;6.046;2023-08-21T12:36:57;102259.97;;;32.06;32.82
43820;BME280;67762;52.476;6.046;2023-08-21T12:39:22;102252.75;;;32.00;31.64
43820;BME280;67762;52.476;6.046;2023-08-21T12:41:48;102255.00;;;32.08;31.69
43820;BME280;67762;52.476;6.046;2023-08-21T12:44:14;102261.69;;;32.37;31.31
43820;BME280;67762;52.476;6.046;2023-08-21T12:46:40;102261.72;;;32.58;32.33
43820;BME280;67762;52.476;6.046;2023-08-21T12:49:06;102248.72;;;32.48;32.19
43820;BME280;67762;52.476;6.046;2023-08-21T12:51:32;102241.81;;;32.71;31.75